Acme, Michigan
Current Conditions -  °F | °C
As of 1:21 AM on Friday 31 Oct 2014 (Local Time) from KTVC Reporting Station
Light Rain Light Rain  
Wind Chill: 39°   Ceiling: 2400
Heat Index: 42°   Visibility: 10mi
Dew Point: 38°   Wind: 5mph
Humidity: 85%   Direction: 270°W
Pressure: 29.92"   Gusts: NA
Location:  44.77°N, 85.5°W
Report Text: KTVC 310521Z 27004KT 10SM -RA FEW020 BKN024 OVC036 06/03 A2992 RMK AO2 P0000 T00560033
Loading
Personal Weather Stations






























Interactive Weather Map
Tropical Storm Tracking
New forecast layout! Learn more

10-Day Weather Forecast

Advertisements
Track Severe Weather on mobile